Time;durP1;ratioP1;P1;durP2;ratioP2;P2;SDS_P1;SDS_P2;PMS_P1;PMS_P2;Temp;Humidity;BMP_temperature;BMP_pressure;BME280_temperature;BME280_humidity;BME280_pressure;Samples;Min_cycle;Max_cycle;Signal;HPM_P1;HPM_P2
2023/12/27 00:03:37;;;;;;;4.25;1.50;;;10.90;99.90;;;;;;10035669;28;20033;-67
2023/12/27 00:08:28;;;;;;;2.67;1.33;;;10.90;99.90;;;;;;10022786;28;20535;-66
2023/12/27 00:13:18;;;;;;;3.10;1.30;;;10.80;99.90;;;;;;10020856;28;20199;-69
2023/12/27 00:18:09;;;;;;;2.85;1.35;;;10.80;99.90;;;;;;10031531;28;20044;-69
2023/12/27 00:23:00;;;;;;;2.22;1.30;;;10.80;99.90;;;;;;10020170;28;20100;-66
2023/12/27 00:27:50;;;;;;;3.53;1.10;;;10.80;99.90;;;;;;10022228;28;20038;-68
2023/12/27 00:32:41;;;;;;;1.42;1.02;;;10.90;99.90;;;;;;10021315;28;20187;-66
2023/12/27 00:37:32;;;;;;;3.17;1.27;;;10.90;99.90;;;;;;10027902;28;20029;-68
2023/12/27 00:42:23;;;;;;;2.75;1.55;;;10.80;99.90;;;;;;10027335;28;20057;-66
2023/12/27 00:47:13;;;;;;;3.55;1.27;;;10.80;99.90;;;;;;10022154;28;20069;-67
2023/12/27 00:52:04;;;;;;;2.50;1.20;;;10.70;99.90;;;;;;10035613;28;20090;-68
2023/12/27 00:56:55;;;;;;;2.42;1.63;;;10.70;99.90;;;;;;10038538;28;20507;-67
2023/12/27 01:01:46;;;;;;;2.50;1.20;;;10.70;99.90;;;;;;10041559;28;20026;-66
2023/12/27 01:06:36;;;;;;;1.83;1.45;;;10.60;99.90;;;;;;10027163;28;20191;-66
2023/12/27 01:11:27;;;;;;;4.40;1.23;;;10.60;99.90;;;;;;10028072;28;20026;-66
2023/12/27 01:16:18;;;;;;;2.83;1.23;;;10.60;99.90;;;;;;10022086;28;20215;-66
2023/12/27 01:21:09;;;;;;;3.50;1.15;;;10.50;99.90;;;;;;10036694;28;20115;-66
2023/12/27 01:26:00;;;;;;;3.30;1.10;;;10.50;99.90;;;;;;10032920;28;20053;-66
2023/12/27 01:30:50;;;;;;;1.30;1.10;;;10.50;99.90;;;;;;10026066;28;20655;-67
2023/12/27 01:35:41;;;;;;;3.42;1.27;;;10.50;99.90;;;;;;10018017;28;20361;-67
2023/12/27 01:40:31;;;;;;;3.53;1.10;;;10.50;99.90;;;;;;9998690;28;20048;-67
2023/12/27 01:45:22;;;;;;;3.13;1.35;;;10.60;99.90;;;;;;10024213;28;20434;-66
2023/12/27 01:50:14;;;;;;;3.00;1.38;;;10.60;99.90;;;;;;10005289;28;20065;-66
2023/12/27 01:55:06;;;;;;;2.17;1.27;;;10.50;99.90;;;;;;10020767;28;20112;-66
2023/12/27 01:59:57;;;;;;;5.18;1.70;;;10.60;99.90;;;;;;10021279;28;20070;-66
2023/12/27 02:04:47;;;;;;;1.77;1.10;;;10.60;99.90;;;;;;10014068;28;20411;-66
2023/12/27 02:09:38;;;;;;;3.15;1.67;;;10.50;99.90;;;;;;10028638;28;20079;-66
2023/12/27 02:14:29;;;;;;;2.55;1.45;;;10.50;99.90;;;;;;10022511;28;20487;-66
2023/12/27 02:19:21;;;;;;;3.97;1.60;;;10.50;99.90;;;;;;10024767;28;20084;-68
2023/12/27 02:24:14;;;;;;;2.13;1.17;;;10.40;99.90;;;;;;10032618;28;20040;-66
2023/12/27 02:29:05;;;;;;;3.95;1.02;;;10.40;99.90;;;;;;10027847;28;20036;-67
2023/12/27 02:33:56;;;;;;;6.47;1.50;;;10.40;99.90;;;;;;10025993;28;20037;-67
2023/12/27 02:38:46;;;;;;;2.30;1.15;;;10.30;99.90;;;;;;10024577;28;20037;-66
2023/12/27 02:43:37;;;;;;;3.50;1.33;;;10.30;99.90;;;;;;10020738;28;20488;-66
2023/12/27 02:48:28;;;;;;;3.13;1.42;;;10.30;99.90;;;;;;10023188;28;20042;-65
2023/12/27 02:53:18;;;;;;;4.47;1.25;;;10.30;99.90;;;;;;10042014;28;20042;-67
2023/12/27 02:58:09;;;;;;;5.13;1.40;;;10.30;99.90;;;;;;10002215;28;20057;-67
2023/12/27 03:02:59;;;;;;;3.75;1.40;;;10.30;99.90;;;;;;10033788;28;20030;-66
2023/12/27 03:07:50;;;;;;;2.72;1.52;;;10.30;99.90;;;;;;10023211;28;20036;-69
2023/12/27 03:12:41;;;;;;;4.55;1.55;;;10.30;99.90;;;;;;10019931;28;20053;-67
2023/12/27 03:17:31;;;;;;;1.52;1.05;;;10.20;99.90;;;;;;10023321;28;20487;-69
2023/12/27 03:22:22;;;;;;;4.07;1.50;;;10.20;99.90;;;;;;10046428;28;20561;-68
2023/12/27 03:27:12;;;;;;;3.22;1.88;;;10.30;99.90;;;;;;10040868;28;20541;-68
2023/12/27 03:32:04;;;;;;;5.43;1.40;;;10.20;99.90;;;;;;10037327;28;20038;-68
2023/12/27 03:36:55;;;;;;;2.95;1.55;;;10.20;99.90;;;;;;10032064;28;20562;-68
2023/12/27 03:41:45;;;;;;;4.28;1.67;;;10.20;99.90;;;;;;10026519;28;20104;-67
2023/12/27 03:46:37;;;;;;;5.07;2.10;;;10.30;99.90;;;;;;10033768;28;20054;-69
2023/12/27 03:51:27;;;;;;;4.22;2.78;;;10.20;99.90;;;;;;10048343;28;20036;-70
2023/12/27 03:56:19;;;;;;;4.45;2.70;;;10.20;99.90;;;;;;10021261;28;20046;-69
2023/12/27 04:01:10;;;;;;;6.18;3.67;;;10.20;99.90;;;;;;10010792;28;20036;-68
2023/12/27 04:06:01;;;;;;;8.30;4.72;;;10.20;99.90;;;;;;10029024;28;20048;-68
2023/12/27 04:10:51;;;;;;;8.77;4.90;;;10.20;99.90;;;;;;10028271;28;20033;-69
2023/12/27 04:15:42;;;;;;;8.70;4.25;;;10.10;99.90;;;;;;10025744;28;20107;-67
2023/12/27 04:20:33;;;;;;;6.60;4.00;;;10.10;99.90;;;;;;10017445;28;20053;-68
2023/12/27 04:25:23;;;;;;;6.07;2.35;;;10.10;99.90;;;;;;10007538;28;20076;-66
2023/12/27 04:30:14;;;;;;;3.15;1.42;;;10.10;99.90;;;;;;10014745;28;20040;-67
2023/12/27 04:35:05;;;;;;;4.88;1.63;;;10.10;99.90;;;;;;10018867;28;20057;-68
2023/12/27 04:39:56;;;;;;;2.40;1.40;;;10.10;99.90;;;;;;10019866;28;20026;-68
2023/12/27 04:44:46;;;;;;;3.92;2.15;;;10.10;99.90;;;;;;10023763;28;20038;-69
2023/12/27 04:49:37;;;;;;;2.85;1.40;;;10.10;99.90;;;;;;10033109;28;20050;-68
2023/12/27 04:54:28;;;;;;;3.28;1.50;;;10.10;99.90;;;;;;10043866;28;20029;-66
2023/12/27 04:59:18;;;;;;;1.80;1.05;;;10.00;99.90;;;;;;10036077;28;20028;-67
2023/12/27 05:04:09;;;;;;;3.67;1.70;;;10.00;99.90;;;;;;10030842;28;20186;-67
2023/12/27 05:09:03;;;;;;;4.45;1.20;;;9.90;99.90;;;;;;10023910;28;20036;-66
2023/12/27 05:13:54;;;;;;;3.45;1.33;;;10.00;99.90;;;;;;10019920;28;20093;-66
2023/12/27 05:18:45;;;;;;;3.90;1.42;;;9.90;99.90;;;;;;10017889;28;20031;-67
2023/12/27 05:23:36;;;;;;;5.65;1.60;;;9.80;99.90;;;;;;10025884;28;20170;-66
2023/12/27 05:28:26;;;;;;;3.58;1.90;;;9.80;99.90;;;;;;10029806;28;20147;-67
2023/12/27 05:33:17;;;;;;;5.57;1.58;;;9.80;99.90;;;;;;10018867;28;20539;-66
2023/12/27 05:38:08;;;;;;;3.05;1.77;;;9.70;99.90;;;;;;10025342;28;20036;-68
2023/12/27 05:42:58;;;;;;;4.30;1.50;;;9.70;99.90;;;;;;10024432;28;20159;-67
2023/12/27 05:47:49;;;;;;;2.05;1.38;;;9.70;99.90;;;;;;10016750;28;20250;-66
2023/12/27 05:52:40;;;;;;;3.03;1.30;;;9.60;99.90;;;;;;9990595;28;20132;-68
2023/12/27 05:57:30;;;;;;;3.00;1.35;;;9.60;99.90;;;;;;10006265;28;20037;-65
2023/12/27 06:02:21;;;;;;;3.63;1.50;;;9.60;99.90;;;;;;10018057;28;20033;-67
2023/12/27 06:07:12;;;;;;;5.13;1.75;;;9.50;99.90;;;;;;10021619;28;20129;-65
2023/12/27 06:12:03;;;;;;;4.00;1.55;;;9.50;99.90;;;;;;10025721;28;20025;-66
2023/12/27 06:16:53;;;;;;;4.15;2.08;;;9.50;99.90;;;;;;10023270;28;20087;-67
2023/12/27 06:21:44;;;;;;;3.13;1.45;;;9.50;99.90;;;;;;10028703;28;20069;-65
2023/12/27 06:26:34;;;;;;;2.65;1.38;;;9.50;99.90;;;;;;10027005;28;20087;-66
2023/12/27 06:31:25;;;;;;;2.53;1.17;;;9.50;99.90;;;;;;10024727;28;20446;-66
2023/12/27 06:36:15;;;;;;;2.65;1.90;;;9.50;99.90;;;;;;10033748;28;20519;-66
2023/12/27 06:41:08;;;;;;;5.53;1.30;;;9.50;99.90;;;;;;10029343;28;20093;-67
2023/12/27 06:45:59;;;;;;;5.90;1.85;;;9.50;99.90;;;;;;10016037;28;20038;-66
2023/12/27 06:50:50;;;;;;;2.92;1.60;;;9.50;99.90;;;;;;10023304;28;20034;-68
2023/12/27 06:55:41;;;;;;;6.72;1.45;;;9.50;99.90;;;;;;10016976;28;20045;-66
2023/12/27 07:00:32;;;;;;;3.42;1.35;;;9.50;99.90;;;;;;10027017;28;20104;-66
2023/12/27 07:05:22;;;;;;;4.85;1.90;;;9.50;99.90;;;;;;10036124;28;20549;-67
2023/12/27 07:10:13;;;;;;;4.47;1.52;;;9.50;99.90;;;;;;10021339;28;20030;-68
2023/12/27 07:15:08;;;;;;;5.40;1.70;;;9.40;99.90;;;;;;9999513;28;20554;-67
2023/12/27 07:19:59;;;;;;;6.60;1.58;;;9.40;99.90;;;;;;10028853;28;20024;-66
2023/12/27 07:24:49;;;;;;;5.53;1.50;;;9.30;99.90;;;;;;10026174;28;20061;-66
2023/12/27 07:29:40;;;;;;;4.85;2.30;;;9.30;99.90;;;;;;10023112;28;20029;-65
2023/12/27 07:34:32;;;;;;;8.23;1.95;;;9.30;99.90;;;;;;10023249;28;20125;-66
2023/12/27 07:39:23;;;;;;;2.95;1.25;;;9.30;99.90;;;;;;10023331;28;20044;-70
2023/12/27 07:44:15;;;;;;;2.63;1.10;;;9.30;99.90;;;;;;10027615;28;20484;-68
2023/12/27 07:49:06;;;;;;;5.57;2.08;;;9.30;99.90;;;;;;10025690;28;20099;-67
2023/12/27 07:53:57;;;;;;;5.32;1.58;;;9.30;99.90;;;;;;10033702;28;20125;-68
2023/12/27 07:58:47;;;;;;;3.88;1.70;;;9.30;99.90;;;;;;10039355;28;20075;-68
2023/12/27 08:03:39;;;;;;;4.80;1.80;;;9.30;99.90;;;;;;10036507;28;20045;-68
2023/12/27 08:08:30;;;;;;;4.85;2.13;;;9.20;99.90;;;;;;10024065;28;20586;-67
2023/12/27 08:13:20;;;;;;;4.53;1.58;;;9.30;99.90;;;;;;10028112;28;20197;-67
2023/12/27 08:18:11;;;;;;;2.30;1.40;;;9.30;99.90;;;;;;10032871;28;20033;-67
2023/12/27 08:23:02;;;;;;;2.47;1.88;;;9.40;99.90;;;;;;10025430;28;20042;-67
2023/12/27 08:27:52;;;;;;;6.15;1.95;;;9.30;99.90;;;;;;10027166;28;20388;-67
2023/12/27 08:32:43;;;;;;;4.43;1.92;;;9.30;99.90;;;;;;10018652;28;20443;-67
2023/12/27 08:37:34;;;;;;;4.35;1.50;;;9.30;99.90;;;;;;10016381;28;20044;-66
2023/12/27 08:42:24;;;;;;;3.03;2.05;;;9.30;99.90;;;;;;10017649;28;20484;-66
2023/12/27 08:47:15;;;;;;;4.60;1.90;;;9.30;99.90;;;;;;10021463;28;20045;-66
2023/12/27 08:52:06;;;;;;;2.78;1.65;;;9.30;99.90;;;;;;10030280;28;20152;-67
2023/12/27 08:56:56;;;;;;;3.17;1.88;;;9.30;99.90;;;;;;10033012;28;20646;-68
2023/12/27 09:01:47;;;;;;;4.07;1.85;;;9.20;99.90;;;;;;10029729;28;20156;-67
2023/12/27 09:06:38;;;;;;;2.50;1.88;;;9.40;99.90;;;;;;10026871;28;20033;-65
2023/12/27 09:11:28;;;;;;;5.55;2.40;;;9.40;99.90;;;;;;10029066;28;20030;-66
2023/12/27 09:16:19;;;;;;;5.72;2.28;;;9.30;99.90;;;;;;10023687;28;20044;-67
2023/12/27 09:21:10;;;;;;;6.28;2.70;;;9.20;99.90;;;;;;10019087;28;20026;-69
2023/12/27 09:26:00;;;;;;;2.10;1.50;;;9.30;99.90;;;;;;10022916;28;20491;-69
2023/12/27 09:30:52;;;;;;;4.68;2.00;;;9.30;99.90;;;;;;10024183;28;20129;-67
2023/12/27 09:35:42;;;;;;;3.60;2.53;;;9.40;99.90;;;;;;10024874;28;20045;-65
2023/12/27 09:40:33;;;;;;;4.90;2.22;;;9.30;99.90;;;;;;10023697;28;20022;-66
2023/12/27 09:45:25;;;;;;;4.20;2.42;;;9.40;99.90;;;;;;10017291;28;21221;-66
2023/12/27 09:50:15;;;;;;;6.20;2.22;;;9.50;99.90;;;;;;10018919;28;20136;-65
2023/12/27 09:55:06;;;;;;;10.80;1.90;;;9.50;99.90;;;;;;10029460;28;20566;-67
2023/12/27 09:59:59;;;;;;;5.38;2.05;;;9.60;99.90;;;;;;10020063;28;20520;-68
2023/12/27 10:04:52;;;;;;;3.63;2.10;;;9.70;99.90;;;;;;10017663;28;20046;-67
2023/12/27 10:09:44;;;;;;;7.85;1.75;;;9.70;99.90;;;;;;10027218;28;20069;-64
2023/12/27 10:14:37;;;;;;;1.90;1.23;;;9.70;99.90;;;;;;10019840;28;20029;-67
2023/12/27 10:19:42;;;;;;;3.20;1.60;;;9.80;99.90;;;;;;10032149;28;20434;-65
2023/12/27 10:24:34;;;;;;;3.03;1.60;;;9.90;99.90;;;;;;10027401;28;20373;-67
2023/12/27 10:29:25;;;;;;;4.65;1.65;;;10.00;99.90;;;;;;10032645;28;20272;-69
2023/12/27 10:34:16;;;;;;;2.60;1.60;;;10.10;99.90;;;;;;10034322;28;20048;-68
2023/12/27 10:39:07;;;;;;;3.53;1.77;;;10.20;99.90;;;;;;10030165;28;20022;-69
2023/12/27 10:44:00;;;;;;;2.70;1.73;;;10.20;99.90;;;;;;10026044;28;20053;-69
2023/12/27 10:48:56;;;;;;;3.17;1.05;;;10.20;99.90;;;;;;10025601;28;20084;-68
2023/12/27 10:53:48;;;;;;;;;;;10.20;99.90;;;;;;10027003;28;20463;-68
2023/12/27 10:58:43;;;;;;;1.98;1.25;;;10.30;99.90;;;;;;10020336;28;19913;-71
2023/12/27 11:03:36;;;;;;;1.77;1.30;;;10.30;99.90;;;;;;10036109;28;20042;-68
2023/12/27 11:08:28;;;;;;;3.03;2.08;;;10.40;99.90;;;;;;10036911;28;20700;-67
2023/12/27 11:13:21;;;;;;;3.42;1.08;;;10.40;99.90;;;;;;10015192;28;20049;-69
2023/12/27 11:18:12;;;;;;;3.38;1.15;;;10.50;99.90;;;;;;10010622;28;20068;-69
2023/12/27 11:23:03;;;;;;;2.95;1.17;;;10.50;99.90;;;;;;10028209;28;20542;-69
2023/12/27 11:27:54;;;;;;;3.67;1.60;;;10.50;99.90;;;;;;10037189;28;20077;-69
2023/12/27 11:32:46;;;;;;;3.85;1.60;;;10.50;99.90;;;;;;10038518;28;20034;-69
2023/12/27 11:37:40;;;;;;;4.13;1.48;;;10.60;99.90;;;;;;10035972;28;20060;-69
2023/12/27 11:42:31;;;;;;;6.53;1.20;;;10.60;99.90;;;;;;10002649;28;20172;-69
2023/12/27 11:47:23;;;;;;;2.60;2.33;;;10.60;99.90;;;;;;10025315;28;20167;-69
2023/12/27 11:52:17;;;;;;;3.42;1.80;;;10.70;99.90;;;;;;10038685;28;20493;-69
2023/12/27 11:57:10;;;;;;;1.95;1.42;;;10.70;99.90;;;;;;10019899;28;20038;-67
2023/12/27 12:02:03;;;;;;;6.45;2.20;;;10.70;99.90;;;;;;10037436;28;20172;-68
2023/12/27 12:06:54;;;;;;;2.17;1.98;;;10.70;99.90;;;;;;10019913;28;20034;-67
2023/12/27 12:11:45;;;;;;;4.50;1.60;;;10.70;99.90;;;;;;10008796;28;20113;-67
2023/12/27 12:16:38;;;;;;;2.50;1.45;;;10.80;99.90;;;;;;10018119;28;20411;-68
2023/12/27 12:21:30;;;;;;;2.30;1.58;;;10.80;99.90;;;;;;10016794;28;20108;-69
2023/12/27 12:26:20;;;;;;;3.20;1.55;;;10.90;99.90;;;;;;10006998;28;20030;-69
2023/12/27 12:31:11;;;;;;;2.65;1.20;;;10.90;99.90;;;;;;10007766;28;20090;-68
2023/12/27 12:36:02;;;;;;;2.90;1.75;;;10.90;99.90;;;;;;10010887;28;20125;-69
2023/12/27 12:40:53;;;;;;;2.65;1.63;;;10.90;99.90;;;;;;10010000;28;20054;-69
2023/12/27 12:45:46;;;;;;;2.35;1.40;;;11.00;99.90;;;;;;10010922;28;20116;-69
2023/12/27 12:50:36;;;;;;;3.83;1.35;;;11.00;99.90;;;;;;10008562;28;20025;-71
2023/12/27 12:55:29;;;;;;;3.92;1.55;;;11.00;99.90;;;;;;10021672;28;20030;-69
2023/12/27 13:00:23;;;;;;;2.92;1.35;;;11.00;99.90;;;;;;10038140;28;20038;-69
2023/12/27 13:05:13;;;;;;;3.45;1.92;;;11.00;99.90;;;;;;10016846;28;20018;-66
2023/12/27 13:10:05;;;;;;;4.82;1.75;;;11.10;99.90;;;;;;10024038;28;20112;-68
2023/12/27 13:14:56;;;;;;;5.55;1.83;;;11.00;99.90;;;;;;10006879;28;20092;-70
2023/12/27 13:19:46;;;;;;;2.67;2.15;;;11.10;99.90;;;;;;10018825;28;20107;-69
2023/12/27 13:24:38;;;;;;;2.35;1.60;;;11.10;99.90;;;;;;10019583;28;20113;-68
2023/12/27 13:29:29;;;;;;;3.22;1.25;;;11.10;99.90;;;;;;10020243;28;20112;-67
2023/12/27 13:34:20;;;;;;;3.10;1.80;;;11.10;99.90;;;;;;10020380;28;20185;-69
2023/12/27 13:39:11;;;;;;;2.38;1.33;;;11.10;99.90;;;;;;10022193;28;20105;-68
2023/12/27 13:44:01;;;;;;;2.47;1.75;;;11.10;99.90;;;;;;10024670;28;20091;-69
2023/12/27 13:48:52;;;;;;;3.10;1.77;;;11.10;99.90;;;;;;10040784;28;20042;-68
2023/12/27 13:53:43;;;;;;;3.85;1.52;;;11.20;99.90;;;;;;9998293;28;20613;-68
2023/12/27 13:58:35;;;;;;;2.50;1.88;;;11.20;99.90;;;;;;10017083;28;20419;-68
2023/12/27 14:03:29;;;;;;;3.28;1.45;;;11.20;99.90;;;;;;10012506;28;20033;-68
2023/12/27 14:08:20;;;;;;;3.15;1.48;;;11.20;99.90;;;;;;10013160;28;20038;-68
2023/12/27 14:13:11;;;;;;;3.33;1.75;;;11.20;99.90;;;;;;10016616;28;20120;-68
2023/12/27 14:18:02;;;;;;;3.05;1.67;;;11.20;99.90;;;;;;10026215;28;20065;-69
2023/12/27 14:22:52;;;;;;;2.08;1.17;;;11.20;99.90;;;;;;10007838;28;20025;-69
2023/12/27 14:27:43;;;;;;;2.20;1.63;;;11.20;99.90;;;;;;10012749;28;20217;-68
2023/12/27 14:32:34;;;;;;;2.92;1.63;;;11.10;99.90;;;;;;10018613;28;20411;-68
2023/12/27 14:37:24;;;;;;;3.20;1.50;;;11.20;99.90;;;;;;10001997;28;20037;-69
2023/12/27 14:42:15;;;;;;;3.78;1.70;;;11.10;99.90;;;;;;10018216;28;20050;-67
2023/12/27 14:47:07;;;;;;;4.68;1.63;;;11.10;99.90;;;;;;10021462;28;20447;-68
2023/12/27 14:51:59;;;;;;;2.65;1.63;;;11.10;99.90;;;;;;10034427;28;20026;-68
2023/12/27 14:56:50;;;;;;;2.65;1.63;;;11.00;99.90;;;;;;10040656;28;20049;-68
2023/12/27 15:01:41;;;;;;;5.13;1.98;;;11.00;99.90;;;;;;10043649;28;20537;-69
2023/12/27 15:06:31;;;;;;;4.03;2.22;;;11.00;99.90;;;;;;10032104;28;20042;-69
2023/12/27 15:11:22;;;;;;;4.75;1.80;;;11.00;99.90;;;;;;10031451;28;20388;-68
2023/12/27 15:16:16;;;;;;;3.00;1.65;;;11.00;99.90;;;;;;10026882;28;20037;-69
2023/12/27 15:21:15;;;;;;;6.45;1.92;;;10.90;99.90;;;;;;10048863;28;20022;-69
2023/12/27 15:26:06;;;;;;;3.10;1.80;;;10.90;99.90;;;;;;10044805;28;20066;-68
2023/12/27 15:30:57;;;;;;;3.28;1.70;;;10.90;99.90;;;;;;10034114;28;20494;-68
2023/12/27 15:35:47;;;;;;;3.05;1.73;;;10.80;99.90;;;;;;10033470;28;20045;-68
2023/12/27 15:40:38;;;;;;;2.20;1.60;;;10.80;99.90;;;;;;10023199;28;20030;-68
2023/12/27 15:45:29;;;;;;;5.03;2.47;;;10.80;99.90;;;;;;10015568;28;20099;-67
2023/12/27 15:50:21;;;;;;;4.40;2.60;;;10.70;99.90;;;;;;10030645;28;20053;-68
2023/12/27 15:55:16;;;;;;;4.38;2.20;;;10.70;99.90;;;;;;10031832;28;20048;-66
2023/12/27 16:00:08;;;;;;;4.45;2.22;;;10.60;99.90;;;;;;10028028;28;20045;-66
2023/12/27 16:04:59;;;;;;;6.78;3.53;;;10.60;99.90;;;;;;10021205;28;20079;-66
2023/12/27 16:09:50;;;;;;;4.95;2.63;;;10.60;99.90;;;;;;10025820;28;20095;-67
2023/12/27 16:14:42;;;;;;;8.32;3.42;;;10.60;99.90;;;;;;10022501;28;20045;-68
2023/12/27 16:19:35;;;;;;;5.60;3.17;;;10.60;99.90;;;;;;10016731;28;20142;-65
2023/12/27 16:24:26;;;;;;;6.15;2.67;;;10.50;99.90;;;;;;10040543;28;20034;-66
2023/12/27 16:29:19;;;;;;;8.70;3.00;;;10.50;99.90;;;;;;10038082;28;20030;-66
2023/12/27 16:34:09;;;;;;;7.88;3.30;;;10.50;99.90;;;;;;10030003;28;20038;-67
2023/12/27 16:39:00;;;;;;;4.97;2.45;;;10.50;99.90;;;;;;10026838;28;20029;-67
2023/12/27 16:43:57;;;;;;;6.18;2.67;;;10.40;99.90;;;;;;10025115;28;20116;-66
2023/12/27 16:48:48;;;;;;;3.17;2.22;;;10.40;99.90;;;;;;10036642;28;20042;-68
2023/12/27 16:53:39;;;;;;;2.70;1.98;;;10.40;99.90;;;;;;10025897;28;20496;-65
2023/12/27 16:58:29;;;;;;;8.55;2.70;;;10.40;99.90;;;;;;10041863;28;20034;-67
2023/12/27 17:03:20;;;;;;;3.00;2.40;;;10.40;99.90;;;;;;10025364;28;20058;-68
2023/12/27 17:08:11;;;;;;;6.10;3.63;;;10.30;99.90;;;;;;10025161;28;20033;-68
2023/12/27 17:13:03;;;;;;;5.40;2.70;;;10.30;99.90;;;;;;10025837;28;20048;-68
2023/12/27 17:17:54;;;;;;;5.18;2.88;;;10.20;99.90;;;;;;10028194;28;20034;-68
2023/12/27 17:22:45;;;;;;;5.90;2.42;;;10.20;99.90;;;;;;10025621;28;20080;-67
2023/12/27 17:27:36;;;;;;;5.75;3.33;;;10.20;99.90;;;;;;10033273;28;20119;-66
2023/12/27 17:32:27;;;;;;;5.85;3.45;;;10.20;99.90;;;;;;10032922;28;20025;-66
2023/12/27 17:37:18;;;;;;;7.50;3.13;;;10.20;99.90;;;;;;10026003;28;20529;-65
2023/12/27 17:42:09;;;;;;;4.72;2.88;;;10.10;99.90;;;;;;10024968;28;20041;-65
2023/12/27 17:47:00;;;;;;;5.57;3.10;;;10.10;99.90;;;;;;10016895;28;20050;-65
2023/12/27 17:51:51;;;;;;;7.28;3.40;;;10.10;99.90;;;;;;10037547;28;20112;-65
2023/12/27 17:56:42;;;;;;;6.43;3.55;;;10.10;99.90;;;;;;10043847;28;20131;-64
2023/12/27 18:01:32;;;;;;;6.80;3.60;;;10.00;99.90;;;;;;10030325;28;20108;-66
2023/12/27 18:06:23;;;;;;;6.60;4.07;;;9.90;99.90;;;;;;10022020;28;20032;-65
2023/12/27 18:11:18;;;;;;;9.32;3.67;;;10.00;99.90;;;;;;10025293;28;20021;-68
2023/12/27 18:16:09;;;;;;;6.43;4.15;;;9.90;99.90;;;;;;10018708;28;21250;-67
2023/12/27 18:21:00;;;;;;;11.00;4.68;;;9.80;99.90;;;;;;10041570;28;20495;-69
2023/12/27 18:25:51;;;;;;;8.15;3.85;;;9.80;99.90;;;;;;10031607;28;20428;-67
2023/12/27 18:30:42;;;;;;;6.38;4.55;;;9.80;99.90;;;;;;10025071;28;20037;-66
2023/12/27 18:35:32;;;;;;;7.00;3.83;;;9.80;99.90;;;;;;10032741;28;20036;-66
2023/12/27 18:40:24;;;;;;;5.25;3.75;;;9.80;99.90;;;;;;10019443;28;20467;-68
2023/12/27 18:45:16;;;;;;;7.18;3.55;;;9.70;99.90;;;;;;10018429;28;20088;-66
2023/12/27 18:50:07;;;;;;;8.38;3.60;;;9.70;99.90;;;;;;9964743;28;2060661;-66
2023/12/27 18:54:58;;;;;;;6.53;3.88;;;9.60;99.90;;;;;;10030037;28;20542;-68
2023/12/27 18:59:48;;;;;;;6.07;4.03;;;9.70;99.90;;;;;;10049859;28;20034;-68
2023/12/27 19:04:42;;;;;;;6.28;3.70;;;9.70;99.90;;;;;;10032747;28;20039;-66
2023/12/27 19:09:33;;;;;;;4.88;3.63;;;9.70;99.90;;;;;;10027863;28;20503;-67
2023/12/27 19:14:23;;;;;;;5.63;3.63;;;9.70;99.90;;;;;;10030765;28;20061;-66
2023/12/27 19:19:16;;;;;;;5.20;3.63;;;9.70;99.90;;;;;;10041661;28;20115;-69
2023/12/27 19:24:07;;;;;;;8.10;4.60;;;9.70;99.90;;;;;;10039593;28;20125;-67
2023/12/27 19:28:57;;;;;;;7.95;4.30;;;9.70;99.90;;;;;;10042255;28;20121;-69
2023/12/27 19:33:48;;;;;;;9.25;4.65;;;9.70;99.90;;;;;;10030526;28;20076;-69
2023/12/27 19:38:39;;;;;;;5.25;4.00;;;9.70;99.90;;;;;;10029193;28;20130;-66
2023/12/27 19:43:29;;;;;;;5.13;3.47;;;9.70;99.90;;;;;;10027903;28;20030;-65
2023/12/27 19:48:20;;;;;;;7.28;4.30;;;9.60;99.90;;;;;;10033035;28;20167;-67
2023/12/27 19:53:11;;;;;;;8.73;4.05;;;9.60;99.90;;;;;;10053671;28;20076;-68
2023/12/27 19:58:01;;;;;;;8.82;3.00;;;9.70;99.90;;;;;;10019127;28;20077;-68
2023/12/27 20:02:52;;;;;;;6.63;3.80;;;9.60;99.90;;;;;;10034477;28;20040;-70
2023/12/27 20:07:43;;;;;;;5.90;3.33;;;9.70;99.90;;;;;;10014677;28;20017;-67
2023/12/27 20:12:33;;;;;;;6.60;3.58;;;9.60;99.90;;;;;;10024063;28;20052;-68
2023/12/27 20:17:24;;;;;;;5.05;3.63;;;9.60;99.90;;;;;;10031785;28;20047;-69
2023/12/27 20:22:15;;;;;;;8.23;3.88;;;9.60;99.90;;;;;;10020618;28;20068;-68
2023/12/27 20:27:05;;;;;;;7.32;4.03;;;9.60;99.90;;;;;;10039877;28;20033;-65
2023/12/27 20:32:02;;;;;;;6.50;3.88;;;9.60;99.90;;;;;;10029780;28;20504;-65
2023/12/27 20:36:52;;;;;;;7.20;3.53;;;9.60;99.90;;;;;;10021435;28;20068;-68
2023/12/27 20:41:43;;;;;;;7.47;3.38;;;9.50;99.90;;;;;;10009114;28;20057;-67
2023/12/27 20:46:34;;;;;;;5.72;3.83;;;9.50;99.90;;;;;;10042560;28;20454;-69
2023/12/27 20:51:24;;;;;;;4.82;3.08;;;9.50;99.90;;;;;;10048824;28;20032;-67
2023/12/27 20:56:15;;;;;;;6.75;2.83;;;9.50;99.90;;;;;;10047133;28;20083;-67
2023/12/27 21:01:05;;;;;;;7.20;3.95;;;9.50;99.90;;;;;;10032607;28;20018;-68
2023/12/27 21:05:56;;;;;;;10.35;4.15;;;9.50;99.90;;;;;;10025608;28;20030;-69
2023/12/27 21:10:48;;;;;;;8.98;3.75;;;9.50;99.90;;;;;;10028530;28;20129;-68
2023/12/27 21:15:39;;;;;;;9.02;3.72;;;9.50;99.90;;;;;;10014618;28;20448;-68
2023/12/27 21:20:30;;;;;;;9.25;3.38;;;9.60;99.90;;;;;;10042818;28;20112;-66
2023/12/27 21:25:20;;;;;;;5.00;3.17;;;9.60;99.90;;;;;;10038066;28;20052;-67
2023/12/27 21:30:11;;;;;;;6.82;4.03;;;9.60;99.90;;;;;;10027677;28;20055;-65
2023/12/27 21:35:02;;;;;;;4.40;2.83;;;9.60;99.90;;;;;;10025665;28;20144;-67
2023/12/27 21:39:53;;;;;;;4.55;3.15;;;9.60;99.90;;;;;;10020033;28;20603;-65
2023/12/27 21:44:43;;;;;;;5.15;3.30;;;9.50;99.90;;;;;;10032773;28;20033;-66
2023/12/27 21:49:34;;;;;;;4.32;3.38;;;9.50;99.90;;;;;;10051339;28;20049;-65
2023/12/27 21:54:25;;;;;;;8.00;3.75;;;9.50;99.90;;;;;;10045694;28;20068;-65
2023/12/27 21:59:16;;;;;;;5.55;3.38;;;9.50;99.90;;;;;;10037148;28;20076;-65
2023/12/27 22:04:07;;;;;;;3.45;2.67;;;9.50;99.90;;;;;;10023924;28;20121;-68
2023/12/27 22:08:59;;;;;;;7.43;3.42;;;9.50;99.90;;;;;;10028256;28;20503;-66
2023/12/27 22:13:49;;;;;;;4.55;3.33;;;9.50;99.90;;;;;;10005770;28;20057;-65
2023/12/27 22:18:41;;;;;;;3.80;2.60;;;9.50;99.90;;;;;;10035102;28;20026;-67
2023/12/27 22:23:31;;;;;;;2.90;2.35;;;9.40;99.90;;;;;;10039935;28;20590;-68
2023/12/27 22:28:22;;;;;;;5.78;2.50;;;9.40;99.90;;;;;;10022662;28;20028;-67
2023/12/27 22:33:13;;;;;;;4.22;2.75;;;9.30;99.90;;;;;;10026730;28;20543;-68
2023/12/27 22:38:04;;;;;;;4.65;2.90;;;9.40;99.90;;;;;;10025814;28;20022;-66
2023/12/27 22:42:54;;;;;;;5.35;2.70;;;9.40;99.90;;;;;;10013719;28;20126;-69
2023/12/27 22:47:45;;;;;;;5.50;2.53;;;9.40;99.90;;;;;;10035622;28;20464;-69
2023/12/27 22:52:35;;;;;;;2.70;1.90;;;9.50;99.90;;;;;;10030822;28;20535;-69
2023/12/27 22:57:26;;;;;;;3.03;2.38;;;9.40;99.90;;;;;;10037657;28;20038;-66
2023/12/27 23:02:17;;;;;;;4.03;2.85;;;9.40;99.90;;;;;;10037038;28;20025;-66
2023/12/27 23:07:07;;;;;;;5.80;2.88;;;9.40;99.90;;;;;;10016375;28;20109;-70
2023/12/27 23:11:58;;;;;;;5.13;2.58;;;9.50;99.90;;;;;;10026446;28;20026;-66
2023/12/27 23:16:49;;;;;;;3.35;2.17;;;9.40;99.90;;;;;;10027942;28;20053;-66
2023/12/27 23:21:39;;;;;;;4.63;2.88;;;9.40;99.90;;;;;;10043716;28;20035;-65
2023/12/27 23:26:30;;;;;;;4.88;3.00;;;9.40;99.90;;;;;;10034183;28;20513;-67
2023/12/27 23:31:21;;;;;;;5.93;2.85;;;9.40;99.90;;;;;;10033378;28;20095;-66
2023/12/27 23:36:11;;;;;;;6.63;3.05;;;9.40;99.90;;;;;;10029027;28;20116;-69
2023/12/27 23:41:02;;;;;;;6.85;2.42;;;9.30;99.90;;;;;;10025646;28;20030;-69
2023/12/27 23:45:53;;;;;;;3.50;2.13;;;9.40;99.90;;;;;;10055007;28;20575;-69
2023/12/27 23:50:44;;;;;;;3.75;2.38;;;9.40;99.90;;;;;;10046240;28;20362;-68
2023/12/27 23:55:34;;;;;;;3.97;2.55;;;9.40;99.90;;;;;;10031583;28;20052;-67
